Etusivu
METAR-TAF:

METAR-TAF

Lentoasemat :

Umiujaq, Quebec, Kanada

Leveyspiiri: 56-32N, Pituuspiiri: 076-31W, korkeus merenpinnasta: 71 m

Tämänhetkinen sää

Tämä raportti tehtiin 20 tuntia ja 51 minuuttia sitten, kello 12.00 UTC
Tuuli 7 kn luoteesta
Lämpötila -3°C
Kosteus 86%
Ilmanpaine 1016 hPa
Näkyvyys: 22.5 km
Muutamia pilviä 400 ft:n korkeudessa
Muutamia pilviä 800 ft:n korkeudessa
Hajonneita pilviä 1100 ft:n korkeudessa
Pilvistä 2200 ft:n korkeudessa
heikkoja lumikuuroja

METAR: CYMU 311200Z 32007KT 14SM -SHSN FEW004 FEW008 BKN011 OVC022 M03/M05 A2999 RMK SF1SF1ST5SC2 SF TR FIRST AND LAST STFD OBS/NEXT 011200UTC SLP162

Aika: 04:51 (08:51 UTC)


TAF: puuttuu

Säähavainnot ja -ennusteet yli 4000 lentoasemalta (METAR- ja TAF-raportit).

Käytössä olevat sääasemat on merkitty karttaan keltaisilla ja punaisilla pisteillä.

Aseta hiiri pisteen päälle nähdäksesi sääaseman nimen.

Klikkaa sitten nähdäksesi säähavainnot ja -ennusteet.

Kartan vaihtaminen: klikkaa mustalla rastilla varustettuja vihreitä pisteitä, niin voit zoomata sisään; viivalla varustettua vihreää pistettä, niin voit zoomata ulos tai vihreitä nuolia, niin pääset viereisille kartoille.


METAR-TAF: